Time;durP1;ratioP1;P1;durP2;ratioP2;P2;SDS_P1;SDS_P2;PMS_P1;PMS_P2;Temp;Humidity;BMP_temperature;BMP_pressure;BME280_temperature;BME280_humidity;BME280_pressure;Samples;Min_cycle;Max_cycle;Signal;HPM_P1;HPM_P2
2022/01/31 00:00:38;;;;;;;5.87;1.80;;;;;;;4.23;47.06;99737.66;4500225;31;34672;-70
2022/01/31 00:03:06;;;;;;;8.05;1.80;;;;;;;3.94;47.49;99741.59;4500138;31;33577;-71
2022/01/31 00:05:34;;;;;;;0.45;0.45;;;;;;;3.46;48.67;99746.06;4500164;31;33557;-72
2022/01/31 00:08:01;;;;;;;10.38;2.17;;;;;;;3.84;47.84;99750.03;4499299;31;34284;-71
2022/01/31 00:10:30;;;;;;;6.47;1.50;;;;;;;4.18;46.75;99756.25;4500555;31;33755;-71
2022/01/31 00:13:46;;;;;;;7.87;2.30;;;;;;;3.76;47.64;99751.06;4500030;31;33503;-70
2022/01/31 00:15:56;;;;;;;6.37;2.17;;;;;;;3.46;48.45;99751.41;4495476;31;34687;-71
2022/01/31 00:18:23;;;;;;;8.68;1.90;;;;;;;3.93;47.14;99751.50;4498718;31;33903;-71
2022/01/31 00:20:51;;;;;;;5.65;1.48;;;;;;;3.67;47.53;99742.37;4500116;31;34663;-72
2022/01/31 00:23:19;;;;;;;7.57;1.83;;;;;;;3.74;47.67;99738.88;4498558;31;33437;-72
2022/01/31 00:25:46;;;;;;;8.30;1.80;;;;;;;3.41;48.18;99735.13;4498801;31;33731;-71
2022/01/31 00:28:14;;;;;;;6.12;1.52;;;;;;;3.81;47.23;99737.84;4499696;31;35154;-71
2022/01/31 00:30:41;;;;;;;0.40;0.40;;;;;;;3.82;47.17;99722.56;4499932;31;34679;-71
2022/01/31 00:33:09;;;;;;;12.05;2.15;;;;;;;3.83;47.38;99726.94;4498813;31;34249;-71
2022/01/31 00:35:36;;;;;;;6.45;1.92;;;;;;;3.93;46.85;99723.81;4499697;31;33847;-71
2022/01/31 00:38:04;;;;;;;9.48;2.45;;;;;;;4.12;46.39;99723.00;4499087;31;34877;-71
2022/01/31 00:40:34;;;;;;;6.45;1.70;;;;;;;3.75;47.23;99724.44;4498628;31;33608;-70
2022/01/31 00:43:01;;;;;;;7.90;1.85;;;;;;;3.81;46.71;99718.25;4499843;31;34102;-70
2022/01/31 00:45:31;;;;;;;7.35;1.70;;;;;;;3.66;47.19;99723.81;4498458;31;34767;-71
2022/01/31 00:48:04;;;;;;;6.62;1.58;;;;;;;3.79;46.67;99712.25;4496458;31;34155;-72
2022/01/31 00:50:39;;;;;;;3.83;1.60;;;;;;;4.11;46.08;99703.37;4498213;31;34564;-70
2022/01/31 00:53:08;;;;;;;7.68;2.20;;;;;;;4.03;45.72;99708.12;4492453;31;33499;-70
2022/01/31 00:55:35;;;;;;;7.80;2.15;;;;;;;3.55;47.07;99703.78;4498273;31;34709;-71
2022/01/31 00:58:02;;;;;;;0.55;0.55;;;;;;;3.95;46.00;99709.16;4490268;31;34670;-72
2022/01/31 01:00:30;;;;;;;7.10;2.08;;;;;;;3.72;46.89;99714.94;4498485;31;33581;-71
2022/01/31 01:02:58;;;;;;;0.40;0.40;;;;;;;3.97;45.94;99714.31;4494063;31;33374;-71
2022/01/31 01:05:25;;;;;;;5.40;1.73;;;;;;;3.81;46.27;99707.50;4485906;31;32612;-71
2022/01/31 01:07:53;;;;;;;8.68;2.20;;;;;;;4.10;45.56;99711.63;4499414;31;33706;-71
2022/01/31 01:10:20;;;;;;;5.15;1.70;;;;;;;3.47;46.88;99718.19;4499449;31;33389;-72
2022/01/31 01:12:48;;;;;;;0.40;0.40;;;;;;;3.88;46.49;99725.25;4471964;31;32942;-71
2022/01/31 01:15:16;;;;;;;10.40;2.50;;;;;;;3.83;46.54;99727.75;4499360;31;34019;-71
2022/01/31 01:17:45;;;;;;;5.97;2.33;;;;;;;3.95;45.88;99736.00;4485259;31;35052;-71
2022/01/31 01:20:17;;;;;;;8.68;2.12;;;;;;;4.20;44.95;99736.22;4473113;31;34624;-72
2022/01/31 01:22:45;;;;;;;5.45;1.70;;;;;;;4.47;44.73;99744.22;4501448;31;34221;-71
2022/01/31 01:25:13;;;;;;;1.00;0.50;;;;;;;4.29;44.72;99745.69;4487345;31;34032;-71
2022/01/31 01:27:43;;;;;;;6.62;1.85;;;;;;;4.54;43.94;99728.13;4501366;31;34901;-70
2022/01/31 01:30:13;;;;;;;6.65;1.90;;;;;;;4.34;44.23;99734.31;4501155;31;34358;-70
2022/01/31 01:33:01;;;;;;;8.63;1.85;;;;;;;4.47;43.71;99734.34;4501520;31;34236;-71
2022/01/31 01:35:32;;;;;;;7.43;1.92;;;;;;;4.37;43.82;99727.75;4489572;31;34896;-71
2022/01/31 01:38:06;;;;;;;7.10;1.87;;;;;;;4.08;45.38;99732.50;4500608;31;34320;-70
2022/01/31 01:40:36;;;;;;;6.20;2.30;;;;;;;4.16;44.06;99726.91;4487472;31;34538;-71
2022/01/31 01:43:04;;;;;;;9.73;2.28;;;;;;;3.97;45.16;99722.38;4487163;31;33890;-70
2022/01/31 01:45:32;;;;;;;7.07;1.98;;;;;;;4.22;44.22;99714.53;4501158;31;33906;-71
2022/01/31 01:48:00;;;;;;;7.30;2.12;;;;;;;4.30;44.47;99711.63;4501274;31;34043;-71
2022/01/31 01:50:27;;;;;;;0.40;0.40;;;;;;;3.91;45.58;99697.22;4487358;31;34953;-71
2022/01/31 01:52:55;;;;;;;7.87;1.80;;;;;;;4.10;45.02;99700.88;4486904;31;34460;-71
2022/01/31 01:55:22;;;;;;;8.82;1.80;;;;;;;3.87;45.26;99683.34;4501407;31;33704;-71
2022/01/31 01:57:50;;;;;;;8.48;1.77;;;;;;;4.22;44.48;99672.38;4486816;31;34955;-70
2022/01/31 02:00:24;;;;;;;7.65;1.62;;;;;;;4.28;44.08;99663.50;4501387;31;33442;-69
2022/01/31 02:02:52;;;;;;;5.47;1.65;;;;;;;4.38;43.69;99656.84;4501116;31;33405;-70
2022/01/31 02:05:21;;;;;;;7.85;1.65;;;;;;;4.44;43.56;99659.53;4500591;31;34640;-70
2022/01/31 02:07:49;;;;;;;0.32;0.32;;;;;;;4.34;43.86;99659.13;4486855;31;34956;-71
2022/01/31 02:10:16;;;;;;;6.20;1.67;;;;;;;4.29;44.15;99669.69;4474104;31;33959;-69
2022/01/31 02:12:47;;;;;;;0.40;0.40;;;;;;;4.05;44.77;99649.69;4501190;31;33873;-70
2022/01/31 02:15:16;;;;;;;5.37;1.85;;;;;;;4.21;44.62;99654.62;4487278;31;34499;-71
2022/01/31 02:17:45;;;;;;;7.97;1.77;;;;;;;4.32;44.30;99666.59;4501193;31;32434;-70
2022/01/31 02:20:13;;;;;;;0.40;0.40;;;;;;;4.32;44.30;99666.59;4486626;31;33918;-71
2022/01/31 02:22:41;;;;;;;6.30;1.92;;;;;;;4.40;44.41;99668.22;4487163;31;33361;-70
2022/01/31 02:25:10;;;;;;;5.62;2.00;;;;;;;4.11;44.89;99662.28;4487136;31;34008;-71
2022/01/31 02:27:38;;;;;;;7.60;2.25;;;;;;;3.99;45.40;99664.75;4500827;31;34077;-70
2022/01/31 02:30:07;;;;;;;5.78;1.87;;;;;;;3.88;46.67;99670.75;4486635;31;33192;-71
2022/01/31 02:32:36;;;;;;;9.32;2.47;;;;;;;4.19;45.86;99659.38;4500514;31;33510;-70
2022/01/31 02:35:05;;;;;;;7.82;1.90;;;;;;;4.39;45.19;99653.97;4500605;31;33852;-70
2022/01/31 02:37:32;;;;;;;6.75;1.92;;;;;;;4.27;45.46;99664.50;4501023;31;35147;-70
2022/01/31 02:40:01;;;;;;;7.10;1.98;;;;;;;4.29;45.81;99657.06;4500734;31;34574;-71
2022/01/31 02:42:29;;;;;;;7.15;2.20;;;;;;;4.04;46.18;99645.34;4501250;31;32635;-71
2022/01/31 02:44:56;;;;;;;9.82;1.90;;;;;;;4.10;46.25;99647.19;4500855;31;33931;-70
2022/01/31 02:47:27;;;;;;;6.80;1.83;;;;;;;4.04;45.87;99638.13;4486426;31;33949;-70
2022/01/31 02:49:59;;;;;;;5.35;2.30;;;;;;;4.18;45.96;99632.72;4500873;31;33843;-70
2022/01/31 02:52:33;;;;;;;7.43;1.73;;;;;;;4.36;45.82;99635.56;4487155;31;33476;-70
2022/01/31 02:55:02;;;;;;;7.95;2.30;;;;;;;4.39;44.86;99615.53;4486862;31;35118;-70
2022/01/31 02:57:30;;;;;;;10.43;2.22;;;;;;;4.07;45.67;99623.47;4500806;31;34392;-70
2022/01/31 02:59:58;;;;;;;4.22;1.70;;;;;;;4.12;45.85;99618.28;4473051;31;33150;-70
2022/01/31 03:02:27;;;;;;;5.82;1.48;;;;;;;4.15;45.55;99617.03;4501093;31;34309;-70
2022/01/31 03:04:55;;;;;;;6.65;1.80;;;;;;;3.94;46.34;99599.34;4500637;31;33936;-69
2022/01/31 03:07:22;;;;;;;0.40;0.40;;;;;;;4.18;45.27;99601.34;4500609;31;34819;-71
2022/01/31 03:09:50;;;;;;;0.40;0.40;;;;;;;4.25;44.95;99604.00;4500125;31;33910;-70
2022/01/31 03:12:18;;;;;;;9.35;1.87;;;;;;;4.03;45.63;99609.63;4500606;31;33549;-70
2022/01/31 03:14:46;;;;;;;4.37;1.70;;;;;;;4.07;45.49;99612.72;4500815;31;34872;-70
2022/01/31 03:17:22;;;;;;;0.40;0.40;;;;;;;4.04;45.61;99613.97;4487743;31;34863;-70
2022/01/31 03:19:53;;;;;;;0.40;0.40;;;;;;;3.89;46.21;99603.47;4500409;31;34084;-70
2022/01/31 03:22:23;;;;;;;9.25;2.03;;;;;;;4.28;44.96;99604.41;4500250;31;33302;-70
2022/01/31 03:24:50;;;;;;;5.40;1.80;;;;;;;4.18;45.11;99608.56;4500902;31;34761;-71
2022/01/31 03:27:17;;;;;;;0.50;0.50;;;;;;;4.14;45.39;99604.66;4500717;31;35027;-71
2022/01/31 03:29:45;;;;;;;5.78;2.03;;;;;;;4.27;44.97;99600.06;4485561;31;33228;-70
2022/01/31 03:32:13;;;;;;;2.60;0.50;;;;;;;4.41;44.71;99598.16;4500935;31;34188;-69
2022/01/31 03:34:40;;;;;;;7.62;2.53;;;;;;;4.11;45.43;99603.22;4486501;31;33897;-70
2022/01/31 03:37:08;;;;;;;5.87;1.92;;;;;;;4.44;44.68;99591.53;4499998;31;33967;-72
2022/01/31 03:39:36;;;;;;;6.55;1.87;;;;;;;4.45;44.03;99590.50;4499977;31;33545;-70
2022/01/31 03:42:04;;;;;;;4.03;1.60;;;;;;;4.60;44.15;99585.69;4500590;31;34241;-70
2022/01/31 03:44:32;;;;;;;7.40;2.53;;;;;;;4.62;44.20;99580.94;4499877;31;34006;-71
2022/01/31 03:47:00;;;;;;;10.63;2.85;;;;;;;4.51;44.20;99581.59;4473020;31;33358;-70
2022/01/31 03:49:27;;;;;;;5.87;1.92;;;;;;;4.44;44.34;99594.22;4485974;31;34595;-70
2022/01/31 03:51:55;;;;;;;5.35;1.60;;;;;;;4.50;43.98;99586.12;4500384;31;34207;-70
2022/01/31 03:54:25;;;;;;;8.68;2.65;;;;;;;4.13;44.44;99587.72;4500784;31;34582;-70
2022/01/31 03:56:52;;;;;;;8.32;1.98;;;;;;;4.49;43.75;99594.41;4500039;31;33979;-71
2022/01/31 03:59:20;;;;;;;7.40;2.40;;;;;;;4.23;44.01;99584.56;4500062;31;34631;-70
2022/01/31 04:01:48;;;;;;;10.70;2.42;;;;;;;4.36;43.98;99575.66;4473157;31;32003;-75
2022/01/31 04:04:15;;;;;;;12.18;3.37;;;;;;;4.21;43.50;99575.91;4499947;31;34364;-70
2022/01/31 04:06:43;;;;;;;10.18;3.08;;;;;;;4.34;43.38;99569.66;4499928;31;34265;-70
2022/01/31 04:09:10;;;;;;;10.73;3.28;;;;;;;4.11;44.09;99565.63;4499791;31;34739;-72
2022/01/31 04:11:37;;;;;;;7.75;2.17;;;;;;;4.01;44.75;99558.00;4500004;31;34193;-69
2022/01/31 04:14:05;;;;;;;8.60;2.50;;;;;;;4.25;43.48;99553.78;4500340;31;33930;-69
2022/01/31 04:16:32;;;;;;;6.90;2.03;;;;;;;4.27;43.82;99554.41;4500120;31;35157;-69
2022/01/31 04:18:59;;;;;;;8.68;2.35;;;;;;;4.35;43.55;99552.53;4499382;31;33855;-70
2022/01/31 04:21:26;;;;;;;2.72;1.30;;;;;;;4.24;43.78;99537.91;4500287;31;33446;-69
2022/01/31 04:23:54;;;;;;;4.93;1.60;;;;;;;4.00;44.07;99537.56;4500120;31;33704;-71
2022/01/31 04:26:21;;;;;;;9.82;2.10;;;;;;;3.97;43.83;99521.06;4499675;31;34000;-70
2022/01/31 04:29:03;;;;;;;5.22;1.95;;;;;;;3.71;43.91;99538.88;4499495;31;33736;-69
2022/01/31 04:31:40;;;;;;;8.57;2.35;;;;;;;3.90;43.80;99532.62;4499804;31;34146;-72
2022/01/31 04:34:09;;;;;;;0.50;0.50;;;;;;;4.21;43.16;99525.75;4486666;31;34150;-73
2022/01/31 04:36:36;;;;;;;9.00;2.62;;;;;;;4.50;42.69;99535.09;4499779;31;34300;-71
2022/01/31 04:39:04;;;;;;;11.30;2.25;;;;;;;4.56;42.30;99544.16;4484706;31;33782;-69
2022/01/31 04:41:31;;;;;;;6.40;1.60;;;;;;;4.48;42.85;99541.72;4499879;31;33964;-70
2022/01/31 04:44:04;;;;;;;6.32;2.10;;;;;;;3.95;43.47;99545.41;4499774;31;34538;-70
2022/01/31 04:46:31;;;;;;;8.13;2.10;;;;;;;3.89;44.29;99547.09;4485675;31;34712;-69
2022/01/31 04:48:59;;;;;;;7.03;2.17;;;;;;;4.08;43.55;99536.50;4499356;31;34687;-69
2022/01/31 04:51:26;;;;;;;6.85;1.95;;;;;;;3.85;43.98;99521.72;4499724;31;34171;-71
2022/01/31 04:53:53;;;;;;;4.15;1.70;;;;;;;4.10;43.78;99507.59;4485637;31;33789;-70
2022/01/31 04:56:20;;;;;;;8.20;2.22;;;;;;;4.13;43.43;99501.00;4487205;31;33859;-70
2022/01/31 04:58:48;;;;;;;6.47;2.12;;;;;;;4.20;43.71;99496.41;4501060;31;33994;-70
2022/01/31 05:01:15;;;;;;;7.35;1.90;;;;;;;4.16;43.56;99495.19;4501539;31;33642;-70
2022/01/31 05:03:45;;;;;;;6.07;2.05;;;;;;;3.89;43.79;99503.34;4501618;31;33828;-70
2022/01/31 05:06:16;;;;;;;7.22;2.22;;;;;;;4.16;43.25;99506.72;4501453;31;34147;-71
2022/01/31 05:08:43;;;;;;;8.77;2.03;;;;;;;4.57;42.29;99518.94;4501187;31;33602;-70
2022/01/31 05:11:12;;;;;;;7.05;1.67;;;;;;;4.60;42.46;99523.06;4486864;31;34121;-70
2022/01/31 05:13:39;;;;;;;6.32;1.80;;;;;;;4.13;44.21;99517.09;4487159;31;34252;-69
2022/01/31 05:16:06;;;;;;;8.27;2.25;;;;;;;4.29;43.14;99522.78;4487326;31;34823;-73
2022/01/31 05:18:34;;;;;;;5.10;1.67;;;;;;;4.32;43.15;99511.63;4486757;31;34156;-70
2022/01/31 05:21:01;;;;;;;6.97;2.03;;;;;;;4.19;43.53;99518.91;4501126;31;34316;-71
2022/01/31 05:23:29;;;;;;;10.55;2.12;;;;;;;3.72;44.74;99516.38;4501373;31;33905;-70
2022/01/31 05:25:57;;;;;;;9.32;2.03;;;;;;;4.11;43.59;99506.56;4501454;31;34068;-73
2022/01/31 05:28:24;;;;;;;8.05;1.90;;;;;;;4.13;44.50;99495.63;4488640;31;33515;-75
2022/01/31 05:30:51;;;;;;;4.75;1.65;;;;;;;4.28;43.89;99491.63;4498847;31;34179;-77
2022/01/31 05:33:19;;;;;;;7.00;2.03;;;;;;;3.74;45.22;99471.38;4501515;31;34655;-72
2022/01/31 05:35:46;;;;;;;7.28;2.00;;;;;;;4.05;45.00;99459.91;4499944;31;34305;-73
2022/01/31 05:38:13;;;;;;;6.25;1.77;;;;;;;4.45;43.60;99445.44;4500676;31;33566;-76
2022/01/31 05:40:40;;;;;;;6.22;2.00;;;;;;;3.90;44.92;99459.34;4501089;31;33415;-71
2022/01/31 05:43:08;;;;;;;9.00;2.12;;;;;;;4.18;44.31;99455.50;4499707;31;34626;-72
2022/01/31 05:45:35;;;;;;;8.30;2.08;;;;;;;4.32;44.06;99447.19;4501363;31;34038;-71
2022/01/31 05:48:02;;;;;;;7.15;2.00;;;;;;;3.95;45.54;99448.78;4500776;31;33667;-68
2022/01/31 05:50:29;;;;;;;5.87;1.83;;;;;;;4.26;44.48;99442.66;4500844;31;33150;-70
2022/01/31 05:52:57;;;;;;;5.80;1.98;;;;;;;4.32;44.49;99435.63;4501254;31;33210;-69
2022/01/31 05:55:24;;;;;;;5.32;1.70;;;;;;;4.20;44.76;99442.69;4500018;31;35032;-74
2022/01/31 05:57:52;;;;;;;0.40;0.40;;;;;;;4.10;44.86;99443.16;4500959;31;33532;-72
2022/01/31 06:00:21;;;;;;;6.60;1.90;;;;;;;4.14;45.40;99451.59;4500954;31;33557;-73
2022/01/31 06:02:57;;;;;;;6.30;1.80;;;;;;;4.10;45.53;99443.16;4499881;31;34705;-70
2022/01/31 06:05:25;;;;;;;7.50;1.92;;;;;;;4.31;44.53;99442.00;4486459;31;35026;-72
2022/01/31 06:07:53;;;;;;;5.50;2.03;;;;;;;4.19;45.50;99441.88;4499110;31;34396;-73
2022/01/31 06:10:23;;;;;;;23.23;7.20;;;;;;;4.11;45.27;99439.44;4500826;31;32907;-70
2022/01/31 06:12:55;;;;;;;27.45;11.35;;;;;;;4.18;45.21;99453.66;4500898;31;33996;-72
2022/01/31 06:15:23;;;;;;;9.95;2.80;;;;;;;4.61;44.50;99449.47;4499742;31;32608;-71
2022/01/31 06:17:50;;;;;;;12.27;3.17;;;;;;;4.48;44.66;99453.88;4499415;31;34599;-71
2022/01/31 06:20:18;;;;;;;8.45;3.10;;;;;;;4.28;45.10;99443.28;4500734;31;33424;-71
2022/01/31 06:22:47;;;;;;;5.97;2.20;;;;;;;4.65;44.55;99451.50;4499676;31;33785;-68
2022/01/31 06:25:14;;;;;;;6.05;2.03;;;;;;;4.47;44.62;99443.34;4500874;31;34932;-71
2022/01/31 06:27:43;;;;;;;10.07;2.87;;;;;;;3.95;45.78;99451.47;4501029;31;33455;-74
2022/01/31 06:30:10;;;;;;;8.32;2.10;;;;;;;3.80;46.21;99446.41;4499333;31;34843;-71
2022/01/31 06:32:38;;;;;;;7.12;2.30;;;;;;;3.79;46.30;99446.59;4501224;31;34098;-71
2022/01/31 06:35:06;;;;;;;10.43;3.00;;;;;;;4.13;45.46;99447.28;4500674;31;34389;-74
2022/01/31 06:37:35;;;;;;;6.80;2.17;;;;;;;4.00;45.77;99442.81;4500626;31;34054;-72
2022/01/31 06:40:04;;;;;;;0.40;0.40;;;;;;;3.84;46.74;99431.50;4486004;31;34901;-75
2022/01/31 06:42:32;;;;;;;0.40;0.40;;;;;;;4.19;46.03;99422.25;4492250;31;33564;-68
2022/01/31 06:44:59;;;;;;;8.32;2.22;;;;;;;4.50;45.09;99414.19;4490648;31;34230;-70
2022/01/31 06:47:27;;;;;;;8.80;2.50;;;;;;;4.37;45.36;99413.47;4500469;31;34529;-69
2022/01/31 06:49:54;;;;;;;7.72;1.95;;;;;;;4.18;45.77;99405.31;4500357;31;34136;-72
2022/01/31 06:52:23;;;;;;;8.02;2.17;;;;;;;4.26;45.92;99404.25;4500927;31;33632;-68
2022/01/31 06:54:52;;;;;;;6.35;1.80;;;;;;;4.38;46.01;99407.88;4500476;31;34237;-69
2022/01/31 06:57:23;;;;;;;8.63;2.08;;;;;;;4.48;45.76;99407.41;4500685;31;34565;-67
2022/01/31 06:59:50;;;;;;;10.07;2.03;;;;;;;4.41;46.22;99398.56;4500275;31;34147;-68
2022/01/31 07:02:18;;;;;;;6.82;2.80;;;;;;;4.54;45.80;99389.59;4500690;31;33765;-68
2022/01/31 07:04:45;;;;;;;8.30;2.30;;;;;;;3.92;47.37;99375.94;4494474;31;34965;-67
2022/01/31 07:07:13;;;;;;;0.40;0.40;;;;;;;3.71;47.98;99364.47;4488429;31;34762;-68
2022/01/31 07:09:42;;;;;;;7.62;2.35;;;;;;;4.31;47.30;99366.81;4483912;32;34189;-68
2022/01/31 07:12:12;;;;;;;5.47;1.95;;;;;;;4.09;46.91;99366.34;4484093;32;33778;-68
2022/01/31 07:14:39;;;;;;;8.00;2.08;;;;;;;4.29;46.97;99376.94;4484471;32;35026;-66
2022/01/31 07:17:07;;;;;;;9.82;2.47;;;;;;;4.56;46.27;99377.59;4483622;32;33698;-70
2022/01/31 07:19:38;;;;;;;10.98;2.95;;;;;;;4.66;46.36;99382.47;4482454;32;32784;-69
2022/01/31 07:22:10;;;;;;;8.48;3.50;;;;;;;4.76;46.21;99381.97;4483711;32;33941;-68
2022/01/31 07:27:05;;;;;;;13.35;3.00;;;;;;;5.26;44.85;99376.53;4484164;32;33997;-67
2022/01/31 07:29:33;;;;;;;6.90;2.53;;;;;;;4.96;46.15;99382.63;4483971;32;33366;-69
2022/01/31 07:32:01;;;;;;;8.27;2.37;;;;;;;5.41;44.35;99373.47;4483300;32;33892;-68
2022/01/31 07:34:29;;;;;;;8.55;2.47;;;;;;;5.34;44.26;99370.88;4484287;32;33866;-68
2022/01/31 07:37:02;;;;;;;12.20;3.03;;;;;;;5.43;44.24;99361.44;4482357;32;33434;-67
2022/01/31 07:39:30;;;;;;;7.68;1.98;;;;;;;5.46;43.91;99354.78;4482816;32;33517;-68
2022/01/31 07:41:57;;;;;;;6.25;2.28;;;;;;;5.94;43.15;99354.00;4484374;32;34740;-66
2022/01/31 07:44:25;;;;;;;7.25;2.10;;;;;;;5.09;44.66;99349.41;4484167;32;34912;-68
2022/01/31 07:46:53;;;;;;;11.05;2.45;;;;;;;5.57;43.68;99347.81;4484134;32;34054;-67
2022/01/31 07:49:22;;;;;;;7.18;1.98;;;;;;;5.51;44.04;99342.31;4483801;32;34072;-68
2022/01/31 07:51:50;;;;;;;8.52;2.20;;;;;;;5.51;43.77;99346.88;4491298;31;33867;-66
2022/01/31 07:54:23;;;;;;;7.15;2.40;;;;;;;5.50;44.15;99346.03;4499933;31;33845;-68
2022/01/31 07:56:50;;;;;;;10.02;2.53;;;;;;;5.56;44.44;99347.00;4498448;31;33792;-68
2022/01/31 07:59:18;;;;;;;7.32;3.20;;;;;;;5.48;44.46;99356.19;4499060;31;33578;-68
2022/01/31 08:01:46;;;;;;;8.57;3.80;;;;;;;5.72;44.30;99361.72;4489710;31;33805;-75
2022/01/31 08:04:14;;;;;;;8.35;3.85;;;;;;;5.72;44.71;99354.47;4500085;31;35023;-76
2022/01/31 08:06:42;;;;;;;11.98;3.05;;;;;;;5.41;45.45;99352.78;4485646;31;34334;-70
2022/01/31 08:09:09;;;;;;;15.25;3.47;;;;;;;5.29;46.06;99341.94;4499150;31;33287;-75
2022/01/31 08:11:37;;;;;;;12.50;3.37;;;;;;;4.93;46.73;99340.88;4499884;31;33703;-77
2022/01/31 08:14:09;;;;;;;11.30;3.00;;;;;;;5.12;47.05;99338.22;4500174;31;34146;-72
2022/01/31 08:16:38;;;;;;;14.40;4.18;;;;;;;5.50;46.18;99337.16;4499992;31;34659;-71
2022/01/31 08:19:08;;;;;;;6.57;2.58;;;;;;;5.74;45.34;99327.31;4498901;31;33946;-70
2022/01/31 08:21:55;;;;;;;3.95;0.60;;;;;;;5.92;45.20;99313.81;4498247;31;33682;-70
2022/01/31 08:24:23;;;;;;;11.75;3.65;;;;;;;5.88;44.83;99315.31;4500218;31;34121;-72
2022/01/31 08:26:56;;;;;;;11.07;3.50;;;;;;;5.70;45.65;99316.19;4499864;31;33800;-70
2022/01/31 08:29:30;;;;;;;9.85;3.45;;;;;;;5.98;44.94;99306.72;4498849;31;34356;-70
2022/01/31 08:32:08;;;;;;;0.40;0.40;;;;;;;6.09;44.58;99308.63;4499417;31;33805;-71
2022/01/31 08:37:23;;;;;;;8.13;2.50;;;;;;;5.76;45.64;99317.13;4495871;31;80443;-69
2022/01/31 08:39:51;;;;;;;14.63;3.47;;;;;;;6.27;44.80;99320.38;4499311;31;33318;-70
2022/01/31 08:42:19;;;;;;;8.60;2.60;;;;;;;6.20;44.14;99320.50;4498521;31;33875;-69
2022/01/31 08:44:47;;;;;;;8.68;3.00;;;;;;;5.44;46.12;99309.28;4485520;31;34234;-70
2022/01/31 08:47:15;;;;;;;12.48;3.15;;;;;;;5.43;46.19;99310.31;4498565;31;34492;-70
2022/01/31 08:49:43;;;;;;;7.45;2.80;;;;;;;5.90;45.43;99317.78;4497717;31;33089;-69
2022/01/31 08:52:11;;;;;;;7.65;2.72;;;;;;;5.80;45.50;99309.44;4497852;31;33574;-67
2022/01/31 08:54:40;;;;;;;5.75;2.40;;;;;;;5.60;46.05;99310.53;4498301;31;34066;-68
2022/01/31 08:57:08;;;;;;;6.75;2.80;;;;;;;5.70;46.86;99302.75;4499607;31;33652;-69
2022/01/31 08:59:42;;;;;;;9.95;2.80;;;;;;;5.98;46.02;99309.41;4498075;31;33065;-69
2022/01/31 09:02:16;;;;;;;7.32;2.62;;;;;;;5.70;46.48;99305.44;4499166;31;33712;-68
2022/01/31 09:04:51;;;;;;;11.18;2.97;;;;;;;5.64;46.35;99297.44;4485757;31;34175;-67
2022/01/31 09:07:21;;;;;;;5.80;2.30;;;;;;;5.80;46.36;99296.78;4485626;31;33049;-68
2022/01/31 09:09:52;;;;;;;5.78;2.20;;;;;;;6.38;45.00;99289.94;4497382;31;33828;-68
2022/01/31 09:12:24;;;;;;;8.00;2.50;;;;;;;6.16;45.38;99282.41;4498993;31;34712;-69
2022/01/31 09:14:52;;;;;;;9.32;3.22;;;;;;;5.92;45.65;99292.28;4497981;31;34980;-67
2022/01/31 09:17:19;;;;;;;7.90;2.25;;;;;;;6.58;44.49;99292.28;4499378;31;33875;-72
2022/01/31 09:19:47;;;;;;;10.20;3.25;;;;;;;6.65;44.69;99284.09;4497204;31;33436;-68
2022/01/31 09:22:14;;;;;;;6.70;2.62;;;;;;;6.71;43.94;99281.28;4498762;31;33591;-69
2022/01/31 09:24:43;;;;;;;9.00;2.25;;;;;;;6.89;43.82;99284.91;4497907;31;34192;-78
2022/01/31 09:27:11;;;;;;;8.93;2.87;;;;;;;6.96;44.51;99286.44;4499155;31;33956;-77
2022/01/31 09:29:40;;;;;;;8.52;2.65;;;;;;;7.14;43.11;99271.16;4498087;31;33469;-76
2022/01/31 09:32:10;;;;;;;8.10;3.12;;;;;;;6.64;43.29;99269.78;4499274;31;33920;-72
2022/01/31 09:34:37;;;;;;;7.55;2.67;;;;;;;6.58;44.42;99268.03;4499325;31;34244;-74
2022/01/31 09:37:06;;;;;;;8.45;2.70;;;;;;;6.78;43.85;99248.78;4498872;31;33857;-72
2022/01/31 09:39:35;;;;;;;9.18;2.80;;;;;;;6.87;42.44;99246.56;4496521;31;34240;-72
2022/01/31 09:42:06;;;;;;;8.05;3.33;;;;;;;6.78;43.29;99227.22;4499625;31;33542;-70
2022/01/31 09:45:37;;;;;;;10.80;3.35;;;;;;;6.39;43.66;99234.16;4499373;31;34196;-70
2022/01/31 09:50:17;;;;;;;10.35;3.40;;;;;;;6.69;43.41;99213.28;4499300;31;33209;-70
2022/01/31 09:52:44;;;;;;;7.22;2.53;;;;;;;6.70;44.19;99211.44;4499348;31;33575;-71
2022/01/31 09:55:12;;;;;;;9.85;4.68;;;;;;;6.76;42.93;99202.41;4499888;31;34268;-71
2022/01/31 09:57:40;;;;;;;10.32;4.07;;;;;;;6.78;43.28;99187.63;4499811;31;34253;-69
2022/01/31 10:00:09;;;;;;;6.12;2.75;;;;;;;7.38;42.52;99190.94;4499812;31;33059;-71
2022/01/31 10:02:40;;;;;;;6.35;2.80;;;;;;;7.42;42.67;99185.87;4499920;31;32750;-73
2022/01/31 10:05:08;;;;;;;6.78;2.55;;;;;;;7.39;41.46;99176.41;4501261;31;33893;-73
2022/01/31 10:07:43;;;;;;;6.57;2.53;;;;;;;7.07;42.75;99168.78;4499731;31;33952;-72
2022/01/31 10:10:21;;;;;;;6.47;2.70;;;;;;;6.80;42.22;99175.78;4499705;31;32940;-73
2022/01/31 10:18:08;;;;;;;7.95;2.65;;;;;;;7.42;42.41;99167.81;4499622;31;34466;-72
2022/01/31 10:20:58;;;;;;;8.30;2.95;;;;;;;7.65;41.12;99152.56;4499689;31;34317;-73
2022/01/31 10:23:40;;;;;;;8.00;2.85;;;;;;;7.90;40.93;99165.66;4499728;31;33623;-73
2022/01/31 10:26:28;;;;;;;8.50;3.00;;;;;;;7.49;41.14;99148.75;4500145;31;34263;-72
2022/01/31 10:29:10;;;;;;;8.50;2.75;;;;;;;8.02;40.82;99132.06;4485958;31;33681;-72
2022/01/31 10:31:38;;;;;;;7.57;2.30;;;;;;;8.06;40.29;99120.78;4500751;31;33489;-73
2022/01/31 10:34:13;;;;;;;7.70;2.45;;;;;;;8.20;40.06;99124.75;4499881;31;34002;-72
2022/01/31 10:36:42;;;;;;;8.85;2.50;;;;;;;8.30;39.44;99118.69;4500827;31;33983;-72
2022/01/31 10:43:24;;;;;;;5.22;2.10;;;;;;;8.04;40.33;99117.53;4500329;31;34635;-68
2022/01/31 10:54:30;;;;;;;7.90;2.97;;;;;;;8.05;39.24;99084.84;4500912;31;33445;-68
2022/01/31 10:57:14;;;;;;;9.80;2.50;;;;;;;7.72;40.63;99078.41;4499436;31;33750;-68
2022/01/31 10:59:44;;;;;;;7.93;2.78;;;;;;;8.20;39.42;99076.13;4497070;31;34161;-72
2022/01/31 11:02:18;;;;;;;8.50;2.55;;;;;;;7.56;40.84;99071.16;4499277;31;33934;-73
2022/01/31 11:04:47;;;;;;;;;;;;;;;7.81;39.46;99060.72;4500903;31;33282;-72
2022/01/31 11:07:24;;;;;;;5.15;2.40;;;;;;;7.77;40.02;99066.88;4499568;31;33992;-71
2022/01/31 11:09:53;;;;;;;10.48;3.75;;;;;;;7.64;39.52;99062.63;4498829;31;35047;-73
2022/01/31 11:12:23;;;;;;;6.40;3.17;;;;;;;7.45;40.56;99055.84;4500581;31;33632;-72
2022/01/31 11:14:56;;;;;;;8.93;2.87;;;;;;;7.82;39.80;99056.16;4500620;31;34128;-74
2022/01/31 11:17:24;;;;;;;7.53;2.78;;;;;;;7.34;41.69;99049.44;4499502;31;33624;-72
2022/01/31 11:19:57;;;;;;;12.90;5.78;;;;;;;7.40;39.88;99033.09;4498626;31;34174;-73
2022/01/31 11:22:36;;;;;;;5.85;2.50;;;;;;;7.08;40.37;99008.56;4499310;31;34662;-70
2022/01/31 11:25:18;;;;;;;7.70;2.87;;;;;;;6.87;42.50;98998.47;4499198;31;33366;-76
2022/01/31 11:27:52;;;;;;;8.02;2.05;;;;;;;7.32;41.51;98990.34;4500158;31;34029;-74
2022/01/31 11:30:22;;;;;;;7.05;2.85;;;;;;;7.53;40.48;98972.56;4498795;31;33770;-67
2022/01/31 11:32:50;;;;;;;6.60;2.55;;;;;;;7.95;39.60;98961.28;4499029;31;33912;-72
2022/01/31 11:35:17;;;;;;;5.40;2.50;;;;;;;8.05;39.16;98951.66;4498903;31;33053;-70
2022/01/31 11:37:45;;;;;;;8.65;2.67;;;;;;;7.91;39.62;98957.44;4500108;31;34092;-68
2022/01/31 11:40:14;;;;;;;7.82;2.12;;;;;;;8.14;39.04;98961.78;4499762;31;33967;-66
2022/01/31 11:42:43;;;;;;;9.07;2.60;;;;;;;8.48;38.94;98955.41;4499125;31;33884;-73
2022/01/31 11:45:33;;;;;;;6.85;3.10;;;;;;;8.40;39.15;98953.94;4499037;31;33233;-71
2022/01/31 11:48:06;;;;;;;8.82;3.42;;;;;;;8.19;40.44;98955.59;4500089;31;34064;-72
2022/01/31 11:50:42;;;;;;;12.68;3.78;;;;;;;8.24;40.38;98944.84;4496197;31;34902;-66
2022/01/31 11:53:10;;;;;;;8.93;2.95;;;;;;;7.72;39.75;98904.81;4496017;31;34278;-74
2022/01/31 11:55:39;;;;;;;7.37;2.78;;;;;;;8.00;38.92;98892.97;4499267;31;33525;-72
2022/01/31 11:58:09;;;;;;;9.15;4.03;;;;;;;7.54;39.70;98901.34;4500348;31;33679;-73
2022/01/31 12:00:39;;;;;;;16.95;6.45;;;;;;;8.27;38.77;98925.44;4500464;31;34250;-69
2022/01/31 12:03:09;;;;;;;13.45;5.53;;;;;;;8.26;38.33;98925.69;4500079;31;33635;-75
2022/01/31 12:05:38;;;;;;;24.23;14.07;;;;;;;8.19;39.27;98920.47;4499835;31;33259;-68
2022/01/31 12:08:06;;;;;;;12.55;5.15;;;;;;;7.99;38.71;98915.62;4498405;31;34599;-73
2022/01/31 12:10:39;;;;;;;8.43;2.60;;;;;;;8.13;38.77;98919.59;4498152;31;34518;-73
2022/01/31 12:13:45;;;;;;;6.65;2.20;;;;;;;8.24;38.37;98933.22;4499234;31;33866;-74
2022/01/31 12:22:12;;;;;;;13.55;4.22;;;;;;;7.51;39.96;98939.59;4494676;31;34932;-73
2022/01/31 12:24:46;;;;;;;8.38;2.83;;;;;;;7.45;39.98;98937.09;4499112;31;33837;-72